Terminal Aerodrome Forecast
Issued by NWS

Home | Current Version | Previous Version | Text Only | Print | Product List | Glossary On
Versions: 1 2 3 4 5 6 7 8 9 10 11 12 13 14 15 16 17 18 19
618
FTUS46 KSGX 271120
TAFONT
TAF
KONT 271120Z 2712/2818 VRB04KT P6SM BKN015
     FM271630 VRB05KT P6SM SCT020
     FM272100 26011G18KT P6SM SKC
     FM280500 VRB05KT P6SM SCT010
     FM280900 VRB03KT P6SM BKN010
     FM281600 VRB04KT P6SM SCT015=

USA.gov is the U.S. government's official web portal to all federal, state and local government web resources and services.